createdAt,value
2018-04-24T00:00:35.787Z,7.40
2018-04-24T00:01:35.974Z,8.20
2018-04-24T00:02:36.148Z,8.10
2018-04-24T00:03:36.327Z,8.20
2018-04-24T00:04:36.513Z,8.10
2018-04-24T00:05:36.686Z,7.80
2018-04-24T00:06:36.870Z,8.70
2018-04-24T00:07:37.049Z,8.10
2018-04-24T00:08:37.226Z,8.30
2018-04-24T00:09:37.412Z,8.00
2018-04-24T00:10:37.590Z,8.30
2018-04-24T00:11:37.766Z,8.10
2018-04-24T00:12:37.947Z,8.20
2018-04-24T00:13:38.136Z,8.00
2018-04-24T00:14:38.309Z,8.50
2018-04-24T00:15:38.487Z,8.00
2018-04-24T00:16:38.666Z,7.50
2018-04-24T00:17:38.851Z,8.40
2018-04-24T00:18:39.026Z,7.70
2018-04-24T00:19:39.208Z,8.30
2018-04-24T00:20:39.387Z,8.00
2018-04-24T00:21:39.569Z,9.50
2018-04-24T00:22:39.750Z,7.80
2018-04-24T00:23:39.929Z,7.90
2018-04-24T00:24:40.102Z,9.50
2018-04-24T00:25:40.286Z,7.60
2018-04-24T00:26:40.467Z,7.30
2018-04-24T00:27:40.645Z,8.10
2018-04-24T00:28:40.829Z,7.30
2018-04-24T00:29:41.004Z,8.80
2018-04-24T00:30:41.183Z,8.00
2018-04-24T00:31:41.362Z,7.60
2018-04-24T00:32:41.542Z,7.70
2018-04-24T00:33:41.730Z,7.20
2018-04-24T00:34:41.900Z,7.10
2018-04-24T00:35:42.084Z,7.90
2018-04-24T00:36:42.269Z,8.30
2018-04-24T00:37:42.441Z,8.00
2018-04-24T00:38:42.621Z,10.10
2018-04-24T00:39:42.796Z,7.40
2018-04-24T00:40:42.975Z,7.30
2018-04-24T00:41:43.159Z,8.10
2018-04-24T00:42:43.336Z,8.60
2018-04-24T00:43:43.520Z,8.50
2018-04-24T00:44:43.697Z,8.60
2018-04-24T00:45:43.895Z,8.20
2018-04-24T00:46:44.052Z,7.90
2018-04-24T00:47:44.230Z,8.50
2018-04-24T00:48:44.413Z,8.00
2018-04-24T00:49:44.589Z,8.40
2018-04-24T00:50:44.771Z,8.10
2018-04-24T00:51:44.956Z,8.20
2018-04-24T00:52:45.135Z,7.90
2018-04-24T00:53:45.317Z,8.30
2018-04-24T00:54:45.488Z,8.50
2018-04-24T00:55:45.663Z,8.20
2018-04-24T00:56:45.842Z,8.60
2018-04-24T00:57:46.264Z,9.10
2018-04-24T00:58:46.214Z,8.70
2018-04-24T00:59:46.380Z,9.10
2018-04-24T01:00:46.565Z,8.20
2018-04-24T01:01:46.744Z,8.30
2018-04-24T01:02:46.922Z,8.20
2018-04-24T01:03:47.184Z,8.20
2018-04-24T01:04:47.283Z,8.10
2018-04-24T01:05:47.462Z,8.90
2018-04-24T01:06:47.677Z,9.00
2018-04-24T01:07:47.833Z,9.00
2018-04-24T01:08:47.998Z,9.00
2018-04-24T01:09:48.185Z,10.90
2018-04-24T01:10:48.361Z,10.20
2018-04-24T01:11:48.542Z,8.90
2018-04-24T01:12:48.725Z,8.60
2018-04-24T01:13:48.895Z,9.80
2018-04-24T01:14:49.075Z,8.90
2018-04-24T01:15:49.257Z,9.10
2018-04-24T01:16:49.433Z,10.40
2018-04-24T01:17:49.615Z,8.50
2018-04-24T01:18:49.792Z,9.00
2018-04-24T01:19:49.973Z,8.50
2018-04-24T01:20:50.150Z,8.40
2018-04-24T01:21:50.321Z,9.40
2018-04-24T01:22:50.507Z,8.50
2018-04-24T01:23:50.688Z,9.30
2018-04-24T01:24:50.872Z,8.30
2018-04-24T01:25:51.064Z,8.60
2018-04-24T01:26:51.226Z,8.40
2018-04-24T01:27:51.404Z,8.80
2018-04-24T01:28:51.594Z,9.00
2018-04-24T01:29:51.755Z,8.70
2018-04-24T01:30:51.934Z,8.50
2018-04-24T01:31:52.117Z,9.40
2018-04-24T01:32:52.294Z,9.60
2018-04-24T01:33:52.473Z,9.80
2018-04-24T01:34:52.651Z,9.60
2018-04-24T01:35:53.076Z,8.60
2018-04-24T01:36:53.009Z,9.80
2018-04-24T01:37:53.190Z,10.70
2018-04-24T01:38:53.373Z,12.20
2018-04-24T01:39:53.546Z,12.70
2018-04-24T01:40:53.733Z,12.80
2018-04-24T01:41:53.909Z,12.10
2018-04-24T01:42:54.087Z,12.70
2018-04-24T01:43:54.266Z,12.20
2018-04-24T01:45:54.613Z,11.40
2018-04-24T01:46:54.791Z,13.50
2018-04-24T01:47:54.970Z,11.40
2018-04-24T01:48:55.153Z,11.50
2018-04-24T01:49:55.329Z,12.70
2018-04-24T01:50:55.508Z,14.40
2018-04-24T01:51:55.690Z,11.90
2018-04-24T01:52:55.864Z,12.40
2018-04-24T01:53:56.055Z,13.50
2018-04-24T01:55:56.391Z,14.00
2018-04-24T01:56:56.570Z,13.60
2018-04-24T01:57:56.749Z,12.20
2018-04-24T01:58:56.929Z,12.40
2018-04-24T01:59:57.112Z,11.80
2018-04-24T02:00:57.298Z,12.80
2018-04-24T02:01:57.484Z,12.90
2018-04-24T02:02:57.658Z,13.30
2018-04-24T02:03:57.834Z,11.80
2018-04-24T02:04:58.016Z,11.90
2018-04-24T02:05:58.192Z,12.90
2018-04-24T02:06:58.372Z,11.00
2018-04-24T02:07:58.553Z,12.50
2018-04-24T02:08:58.729Z,12.10
2018-04-24T02:09:58.904Z,13.10
2018-04-24T02:10:59.083Z,10.90
2018-04-24T02:11:59.262Z,10.20
2018-04-24T02:12:59.452Z,10.40
2018-04-24T02:13:59.620Z,9.30
2018-04-24T02:14:59.799Z,9.80
2018-04-24T02:15:59.981Z,9.60
2018-04-24T02:17:00.170Z,11.50
2018-04-24T02:18:00.338Z,10.00
2018-04-24T02:19:00.516Z,9.70
2018-04-24T02:20:00.693Z,9.70
2018-04-24T02:21:00.877Z,9.90
2018-04-24T02:22:01.050Z,9.60
2018-04-24T02:23:01.223Z,9.20
2018-04-24T02:24:01.401Z,9.00
2018-04-24T02:25:01.681Z,12.50
2018-04-24T02:26:01.757Z,11.90
2018-04-24T02:27:01.937Z,10.80
2018-04-24T02:28:02.113Z,11.00
2018-04-24T02:29:02.572Z,11.10
2018-04-24T02:30:02.466Z,11.80
2018-04-24T02:31:02.646Z,11.50
2018-04-24T02:32:02.826Z,10.50
2018-04-24T02:33:03.002Z,12.30
2018-04-24T02:34:03.181Z,10.80
2018-04-24T02:35:03.357Z,10.60
2018-04-24T02:36:03.535Z,10.80
2018-04-24T02:37:03.714Z,11.80
2018-04-24T02:38:03.899Z,12.60
2018-04-24T02:39:04.333Z,11.90
2018-04-24T02:40:04.242Z,12.50
2018-04-24T02:41:04.424Z,12.80
2018-04-24T02:42:04.610Z,13.00
2018-04-24T02:43:04.776Z,14.60
2018-04-24T02:44:04.958Z,14.40
2018-04-24T02:45:05.142Z,12.70
2018-04-24T02:46:05.313Z,12.70
2018-04-24T02:47:05.500Z,14.90
2018-04-24T02:48:05.673Z,13.80
2018-04-24T02:49:05.853Z,12.20
2018-04-24T02:50:06.042Z,10.70
2018-04-24T02:51:06.213Z,10.90
2018-04-24T02:52:06.389Z,10.40
2018-04-24T02:53:06.574Z,11.70
2018-04-24T02:54:06.744Z,10.90
2018-04-24T02:55:06.925Z,10.10
2018-04-24T02:56:07.102Z,9.90
2018-04-24T02:57:07.285Z,10.30
2018-04-24T02:58:07.463Z,12.30
2018-04-24T02:59:07.651Z,10.00
2018-04-24T03:00:07.822Z,10.20
2018-04-24T03:01:07.999Z,9.60
2018-04-24T03:02:08.183Z,11.10
2018-04-24T03:03:08.366Z,10.50
2018-04-24T03:04:08.543Z,17.20
2018-04-24T03:05:08.714Z,9.70
2018-04-24T03:06:08.897Z,10.00
2018-04-24T03:07:09.069Z,11.50
2018-04-24T03:08:09.256Z,10.10
2018-04-24T03:09:09.429Z,10.30
2018-04-24T03:10:09.612Z,10.90
2018-04-24T03:11:09.791Z,11.30
2018-04-24T03:12:09.972Z,10.30
2018-04-24T03:13:10.162Z,11.60
2018-04-24T03:14:10.338Z,10.20
2018-04-24T03:15:10.519Z,11.70
2018-04-24T03:16:10.688Z,10.30
2018-04-24T03:17:10.869Z,11.20
2018-04-24T03:18:11.055Z,10.40
2018-04-24T03:19:11.220Z,11.40
2018-04-24T03:20:11.401Z,12.30
2018-04-24T03:21:11.581Z,10.10
2018-04-24T03:22:11.760Z,9.90
2018-04-24T03:23:11.930Z,10.80
2018-04-24T03:24:12.109Z,10.40
2018-04-24T03:25:12.294Z,11.90
2018-04-24T03:26:12.477Z,9.90
2018-04-24T03:27:12.644Z,12.30
2018-04-24T03:28:12.815Z,12.80
2018-04-24T03:29:12.994Z,12.00
2018-04-24T03:30:13.176Z,11.70
2018-04-24T03:31:13.352Z,11.20
2018-04-24T03:32:13.529Z,10.90
2018-04-24T03:33:13.948Z,12.90
2018-04-24T03:34:13.880Z,12.90
2018-04-24T03:35:14.059Z,14.70
2018-04-24T03:36:14.481Z,15.40
2018-04-24T03:37:14.418Z,13.00
2018-04-24T03:38:14.600Z,13.40
2018-04-24T03:39:14.775Z,14.90
2018-04-24T03:40:14.952Z,14.40
2018-04-24T03:41:15.126Z,13.70
2018-04-24T03:42:15.306Z,14.30
2018-04-24T03:43:15.486Z,15.30
2018-04-24T03:44:15.664Z,14.90
2018-04-24T03:45:15.832Z,12.50
2018-04-24T03:46:16.036Z,10.70
2018-04-24T03:47:16.190Z,11.20
2018-04-24T03:48:16.364Z,10.20
2018-04-24T03:49:16.540Z,12.80
2018-04-24T03:50:16.716Z,11.10
2018-04-24T03:51:16.917Z,15.50
2018-04-24T03:52:17.069Z,12.80
2018-04-24T03:53:17.254Z,13.20
2018-04-24T03:54:17.432Z,13.70
2018-04-24T03:55:17.606Z,14.40
2018-04-24T03:56:17.781Z,13.80
2018-04-24T03:57:18.025Z,13.60
2018-04-24T03:58:18.137Z,14.70
2018-04-24T03:59:18.315Z,13.60
2018-04-24T04:00:18.497Z,13.80
2018-04-24T04:01:18.673Z,15.00
2018-04-24T04:02:18.847Z,17.30
2018-04-24T04:03:19.036Z,17.10
2018-04-24T04:04:19.201Z,13.70
2018-04-24T04:05:19.379Z,17.00
2018-04-24T04:06:19.559Z,15.90
2018-04-24T04:07:19.729Z,15.90
2018-04-24T04:08:19.937Z,15.00
2018-04-24T04:09:20.089Z,15.00
2018-04-24T04:10:20.276Z,16.40
2018-04-24T04:11:20.447Z,14.20
2018-04-24T04:12:20.621Z,13.80
2018-04-24T04:13:20.802Z,14.20
2018-04-24T04:14:20.985Z,15.80
2018-04-24T04:15:21.153Z,16.50
2018-04-24T04:16:21.330Z,15.80
2018-04-24T04:17:21.509Z,16.10
2018-04-24T04:18:21.684Z,18.40
2018-04-24T04:19:21.863Z,14.50
2018-04-24T04:20:22.042Z,15.90
2018-04-24T04:21:22.219Z,14.40
2018-04-24T04:22:22.460Z,15.90
2018-04-24T04:23:22.577Z,16.30
2018-04-24T04:24:22.764Z,15.40
2018-04-24T04:25:22.934Z,13.00
2018-04-24T04:26:23.114Z,12.50
2018-04-24T04:27:23.293Z,11.70
2018-04-24T04:28:23.473Z,14.70
2018-04-24T04:29:23.651Z,15.40
2018-04-24T04:30:23.835Z,12.50
2018-04-24T04:31:24.008Z,13.40
2018-04-24T04:32:24.188Z,12.60
2018-04-24T04:33:24.363Z,14.70
2018-04-24T04:34:24.545Z,12.30
2018-04-24T04:35:24.719Z,13.20
2018-04-24T04:36:24.906Z,14.00
2018-04-24T04:37:25.086Z,17.20
2018-04-24T04:38:25.263Z,16.10
2018-04-24T04:39:25.451Z,14.00
2018-04-24T04:40:25.636Z,13.80
2018-04-24T04:41:25.810Z,16.50
2018-04-24T04:42:25.977Z,14.30
2018-04-24T04:43:26.150Z,16.50
2018-04-24T04:44:26.328Z,12.40
2018-04-24T04:45:26.507Z,16.10
2018-04-24T04:46:26.687Z,14.30
2018-04-24T04:47:26.865Z,17.30
2018-04-24T04:48:27.039Z,13.30
2018-04-24T04:49:27.218Z,14.40
2018-04-24T04:50:27.398Z,14.70
2018-04-24T04:51:27.585Z,15.40
2018-04-24T04:52:27.747Z,16.60
2018-04-24T04:53:27.938Z,15.70
2018-04-24T04:54:28.112Z,15.90
2018-04-24T04:55:28.294Z,14.00
2018-04-24T04:56:28.473Z,15.80
2018-04-24T04:57:28.891Z,17.00
2018-04-24T04:58:28.827Z,18.70
2018-04-24T04:59:29.007Z,15.10
2018-04-24T05:00:29.184Z,14.80
2018-04-24T05:01:29.369Z,15.50
2018-04-24T05:02:29.554Z,15.50
2018-04-24T05:03:29.977Z,16.10
2018-04-24T05:04:29.915Z,14.60
2018-04-24T05:05:30.100Z,15.10
2018-04-24T05:06:30.276Z,15.40
2018-04-24T05:07:30.468Z,15.10
2018-04-24T05:08:30.636Z,15.30
2018-04-24T05:09:30.818Z,16.10
2018-04-24T05:10:30.989Z,18.10
2018-04-24T05:11:31.167Z,17.30
2018-04-24T05:12:31.346Z,15.50
2018-04-24T05:13:31.525Z,18.00
2018-04-24T05:14:31.704Z,18.10
2018-04-24T05:15:31.897Z,15.80
2018-04-24T05:16:32.078Z,18.00
2018-04-24T05:17:32.275Z,13.50
2018-04-24T05:18:32.430Z,15.50
2018-04-24T05:19:32.598Z,14.70
2018-04-24T05:20:32.779Z,15.80
2018-04-24T05:21:32.953Z,15.10
2018-04-24T05:22:33.129Z,15.30
2018-04-24T05:23:33.315Z,16.50
2018-04-24T05:24:33.736Z,17.10
2018-04-24T05:25:33.678Z,16.00
2018-04-24T05:26:33.829Z,13.80
2018-04-24T05:28:34.175Z,18.80
2018-04-24T05:29:34.358Z,13.90
2018-04-24T05:30:34.541Z,15.70
2018-04-24T05:31:34.718Z,16.60
2018-04-24T05:32:34.891Z,14.30
2018-04-24T05:33:35.080Z,15.90
2018-04-24T05:34:35.255Z,13.40
2018-04-24T05:35:35.436Z,15.70
2018-04-24T05:36:35.617Z,14.50
2018-04-24T05:37:35.796Z,12.60
2018-04-24T05:38:35.979Z,13.50
2018-04-24T05:39:36.157Z,13.50
2018-04-24T05:40:36.341Z,12.80
2018-04-24T05:41:36.520Z,15.30
2018-04-24T05:42:36.700Z,12.80
2018-04-24T05:43:36.896Z,16.00
2018-04-24T05:44:37.059Z,13.10
2018-04-24T05:45:37.243Z,15.70
2018-04-24T05:46:37.423Z,13.20
2018-04-24T05:47:37.606Z,13.40
2018-04-24T05:48:37.784Z,11.10
2018-04-24T05:49:37.958Z,13.50
2018-04-24T05:50:38.145Z,12.80
2018-04-24T05:51:38.719Z,13.90
2018-04-24T05:52:38.517Z,12.00
2018-04-24T05:53:38.702Z,11.40
2018-04-24T05:54:38.882Z,11.90
2018-04-24T05:55:39.065Z,12.10
2018-04-24T05:56:39.245Z,10.70
2018-04-24T05:57:39.423Z,11.80
2018-04-24T05:58:39.626Z,11.20
2018-04-24T05:59:39.829Z,10.30
2018-04-24T06:00:40.013Z,11.80
2018-04-24T06:01:40.208Z,10.60
2018-04-24T06:02:40.377Z,13.10
2018-04-24T06:03:40.572Z,11.70
2018-04-24T06:04:40.755Z,11.40
2018-04-24T06:05:40.935Z,10.50
2018-04-24T06:06:41.127Z,12.50
2018-04-24T06:07:41.305Z,10.80
2018-04-24T06:08:41.515Z,14.30
2018-04-24T06:09:41.673Z,14.90
2018-04-24T06:10:41.853Z,15.90
2018-04-24T06:11:42.037Z,12.10
2018-04-24T06:12:42.261Z,11.90
2018-04-24T06:13:42.404Z,11.90
2018-04-24T06:14:42.593Z,11.20
2018-04-24T06:15:42.780Z,13.70
2018-04-24T06:16:42.971Z,11.50
2018-04-24T06:17:43.140Z,10.20
2018-04-24T06:18:43.325Z,12.10
2018-04-24T06:19:43.511Z,11.00
2018-04-24T06:20:43.693Z,14.50
2018-04-24T06:21:43.880Z,11.40
2018-04-24T06:22:44.069Z,10.70
2018-04-24T06:23:44.243Z,12.40
2018-04-24T06:24:44.427Z,12.40
2018-04-24T06:25:44.615Z,11.00
2018-04-24T06:26:44.806Z,11.80
2018-04-24T06:27:44.986Z,11.50
2018-04-24T06:28:45.185Z,10.50
2018-04-24T06:29:45.350Z,11.50
2018-04-24T06:30:45.533Z,12.00
2018-04-24T06:31:45.721Z,10.90
2018-04-24T06:32:45.900Z,9.40
2018-04-24T06:33:46.085Z,10.80
2018-04-24T06:34:46.276Z,11.30
2018-04-24T06:35:46.463Z,12.30
2018-04-24T06:36:46.663Z,14.70
2018-04-24T06:37:46.819Z,12.10
2018-04-24T06:38:47.009Z,11.20
2018-04-24T06:39:47.194Z,10.50
2018-04-24T06:40:47.378Z,13.50
2018-04-24T06:41:47.567Z,9.30
2018-04-24T06:42:47.745Z,11.60
2018-04-24T06:43:47.928Z,10.60
2018-04-24T06:44:48.116Z,11.50
2018-04-24T06:45:48.301Z,9.30
2018-04-24T06:46:48.489Z,11.30
2018-04-24T06:47:48.736Z,8.30
2018-04-24T06:48:48.850Z,10.20
2018-04-24T06:49:49.036Z,10.40
2018-04-24T06:50:49.228Z,9.10
2018-04-24T06:51:49.407Z,10.00
2018-04-24T06:52:49.592Z,11.40
2018-04-24T06:53:49.786Z,11.80
2018-04-24T06:54:49.967Z,10.90
2018-04-24T06:55:50.150Z,12.70
2018-04-24T06:56:50.347Z,10.30
2018-04-24T06:57:50.517Z,11.60
2018-04-24T06:58:50.711Z,11.20
2018-04-24T06:59:50.878Z,13.30
2018-04-24T07:00:51.147Z,10.50
2018-04-24T07:01:51.490Z,11.30
2018-04-24T07:02:51.430Z,10.80
2018-04-24T07:03:51.623Z,9.70
2018-04-24T07:04:51.800Z,10.80
2018-04-24T07:05:51.985Z,10.40
2018-04-24T07:06:52.166Z,10.40
2018-04-24T07:07:52.350Z,9.90
2018-04-24T07:08:52.537Z,10.90
2018-04-24T07:09:52.718Z,9.00
2018-04-24T07:10:52.913Z,9.70
2018-04-24T07:11:53.089Z,10.10
2018-04-24T07:12:53.280Z,10.00
2018-04-24T07:13:53.448Z,10.00
2018-04-24T07:14:53.631Z,10.70
2018-04-24T07:15:53.816Z,9.80
2018-04-24T07:16:54.079Z,10.50
2018-04-24T07:17:54.441Z,10.30
2018-04-24T07:18:54.376Z,8.10
2018-04-24T07:19:54.563Z,8.10
2018-04-24T07:20:54.748Z,9.30
2018-04-24T07:21:54.941Z,9.10
2018-04-24T07:22:55.123Z,9.60
2018-04-24T07:23:55.306Z,9.90
2018-04-24T07:24:55.493Z,9.60
2018-04-24T07:25:55.675Z,9.50
2018-04-24T07:26:55.856Z,11.30
2018-04-24T07:28:56.217Z,9.60
2018-04-24T07:29:56.409Z,8.60
2018-04-24T07:30:56.596Z,9.70
2018-04-24T07:31:56.770Z,9.50
2018-04-24T07:32:57.029Z,7.70
2018-04-24T07:33:57.145Z,7.70
2018-04-24T07:34:57.328Z,9.40
2018-04-24T07:35:57.512Z,9.30
2018-04-24T07:36:57.761Z,8.40
2018-04-24T07:37:57.883Z,7.70
2018-04-24T07:38:58.072Z,8.20
2018-04-24T07:39:58.252Z,5.10
2018-04-24T07:40:58.486Z,6.50
2018-04-24T07:41:58.628Z,5.40
2018-04-24T07:42:58.808Z,5.80
2018-04-24T07:43:58.997Z,4.90
2018-04-24T07:44:59.184Z,4.70
2018-04-24T07:45:59.369Z,4.40
2018-04-24T07:46:59.565Z,4.10
2018-04-24T07:47:59.742Z,4.90
2018-04-24T07:49:00.181Z,4.40
2018-04-24T07:50:00.116Z,4.10
2018-04-24T07:51:00.307Z,6.90
2018-04-24T07:52:00.487Z,5.10
2018-04-24T07:53:00.679Z,4.80
2018-04-24T07:54:00.859Z,4.80
2018-04-24T07:55:01.044Z,4.10
2018-04-24T07:56:01.231Z,2.80
2018-04-24T07:57:01.424Z,4.30
2018-04-24T07:58:01.608Z,4.50
2018-04-24T07:59:01.795Z,6.30
2018-04-24T08:00:01.977Z,4.50
2018-04-24T08:01:02.168Z,6.80
2018-04-24T08:02:02.351Z,6.50
2018-04-24T08:03:02.532Z,5.90
2018-04-24T08:04:02.721Z,5.30
2018-04-24T08:05:02.908Z,4.70
2018-04-24T08:06:03.091Z,3.90
2018-04-24T08:20:25.579Z,6.00
2018-04-24T08:21:25.765Z,3.80
2018-04-24T08:22:25.951Z,4.90
2018-04-24T08:23:26.137Z,3.20
2018-04-24T08:24:26.319Z,3.30
2018-04-24T08:25:26.503Z,2.80
2018-04-24T08:26:26.688Z,4.50
2018-04-24T08:27:26.874Z,5.40
2018-04-24T08:28:27.051Z,3.90
2018-04-24T08:29:27.242Z,4.10
2018-04-24T08:30:27.418Z,3.60
2018-04-24T08:31:27.607Z,4.90
2018-04-24T08:32:27.793Z,5.70
2018-04-24T08:33:28.083Z,4.10
2018-04-24T08:34:28.155Z,6.10
2018-04-24T08:35:28.338Z,4.30
2018-04-24T08:36:28.525Z,3.90
2018-04-24T08:37:28.722Z,3.50
2018-04-24T08:38:28.909Z,3.70
2018-04-24T08:39:29.092Z,4.70
2018-04-24T08:40:29.283Z,3.30
2018-04-24T08:41:29.466Z,2.70
2018-04-24T08:42:29.659Z,4.30
2018-04-24T08:43:29.854Z,3.80
2018-04-24T08:44:30.045Z,5.20
2018-04-24T08:45:30.233Z,3.70
2018-04-24T08:46:30.421Z,4.50
2018-04-24T08:47:30.609Z,4.00
2018-04-24T08:48:30.868Z,4.60
2018-04-24T08:49:30.990Z,5.40
2018-04-24T08:50:31.180Z,4.30
2018-04-24T08:51:31.364Z,4.50
2018-04-24T08:52:31.566Z,3.10
2018-04-24T08:53:31.751Z,5.00
2018-04-24T08:54:31.960Z,7.70
2018-04-24T08:55:32.149Z,23.80
2018-04-24T08:56:32.365Z,6.80
2018-04-24T08:57:32.517Z,4.80
2018-04-24T08:58:32.696Z,3.90
2018-04-24T08:59:32.885Z,5.00
2018-04-24T09:00:33.085Z,3.70
2018-04-24T09:01:33.281Z,3.70
2018-04-24T09:02:33.452Z,3.20
2018-04-24T09:03:33.648Z,4.30
2018-04-24T09:04:33.822Z,5.40
2018-04-24T09:05:34.037Z,4.10
2018-04-24T09:06:34.225Z,4.60
2018-04-24T09:07:34.417Z,3.60
2018-04-24T09:08:34.680Z,3.70
2018-04-24T09:09:34.793Z,3.80
2018-04-24T09:10:34.983Z,6.30
2018-04-24T09:11:35.164Z,4.80
2018-04-24T09:12:35.353Z,5.40
2018-04-24T09:13:35.538Z,5.00
2018-04-24T09:14:35.726Z,5.40
2018-04-24T09:15:35.916Z,5.10
2018-04-24T09:16:36.103Z,7.10
2018-04-24T09:17:36.289Z,7.70
2018-04-24T09:18:36.484Z,6.30
2018-04-24T09:19:36.660Z,5.60
2018-04-24T09:20:36.861Z,5.00
2018-04-24T09:21:37.049Z,4.00
2018-04-24T09:22:37.217Z,5.50
2018-04-24T09:23:37.402Z,7.60
2018-04-24T09:24:37.832Z,5.00
2018-04-24T09:25:37.773Z,5.00
2018-04-24T09:26:37.974Z,5.20
2018-04-24T09:27:38.154Z,5.10
2018-04-24T09:28:38.340Z,4.90
2018-04-24T09:29:38.531Z,4.20
2018-04-24T09:30:38.725Z,4.20
2018-04-24T09:31:38.898Z,4.70
2018-04-24T09:32:39.467Z,4.50
2018-04-24T09:33:39.339Z,4.90
2018-04-24T09:34:39.442Z,4.50
2018-04-24T09:35:39.640Z,5.40
2018-04-24T09:36:39.828Z,6.00
2018-04-24T09:37:40.008Z,5.50
2018-04-24T09:38:40.192Z,5.30
2018-04-24T09:39:40.403Z,5.20
2018-04-24T09:40:40.579Z,3.50
2018-04-24T09:41:40.781Z,3.70
2018-04-24T09:42:40.971Z,5.10
2018-04-24T09:43:41.152Z,5.00
2018-04-24T09:44:41.353Z,4.60
2018-04-24T09:45:41.537Z,3.00
2018-04-24T09:46:41.719Z,3.80
2018-04-24T09:47:41.912Z,4.40
2018-04-24T09:48:42.120Z,3.80
2018-04-24T09:49:42.289Z,3.90
2018-04-24T09:50:42.474Z,4.10
2018-04-24T09:51:42.661Z,3.70
2018-04-24T09:52:42.826Z,5.70
2018-04-24T09:53:43.017Z,3.60
2018-04-24T09:54:43.212Z,6.10
2018-04-24T09:55:43.419Z,5.00
2018-04-24T09:56:43.634Z,4.00
2018-04-24T09:57:43.874Z,3.20
2018-04-24T09:58:43.978Z,6.70
2018-04-24T09:59:44.172Z,2.90
2018-04-24T10:00:44.368Z,3.80
2018-04-24T10:01:44.554Z,4.30
2018-04-24T10:02:44.750Z,4.90
2018-04-24T10:03:44.938Z,4.60
2018-04-24T10:04:45.111Z,4.40
2018-04-24T10:05:45.297Z,4.70
2018-04-24T10:06:45.475Z,4.10
2018-04-24T10:07:45.686Z,5.30
2018-04-24T10:08:45.854Z,6.70
2018-04-24T10:10:47.039Z,3.20
2018-04-24T10:11:46.467Z,3.40
2018-04-24T10:12:46.655Z,4.80
2018-04-24T10:13:46.844Z,5.50
2018-04-24T10:14:47.081Z,5.50
2018-04-24T10:15:47.253Z,4.70
2018-04-24T10:16:47.441Z,4.90
2018-04-24T10:17:47.702Z,5.30
2018-04-24T10:18:47.793Z,5.40
2018-04-24T10:19:48.044Z,4.40
2018-04-24T10:20:48.184Z,4.10
2018-04-24T10:21:48.359Z,3.20
2018-04-24T10:22:48.545Z,5.00
2018-04-24T10:23:48.730Z,4.00
2018-04-24T10:24:48.957Z,3.40
2018-04-24T10:25:49.104Z,4.20
2018-04-24T10:26:49.280Z,4.40
2018-04-24T10:27:49.460Z,5.80
2018-04-24T10:28:49.649Z,6.60
2018-04-24T10:29:49.836Z,4.60
2018-04-24T10:30:50.048Z,4.00
2018-04-24T10:31:50.201Z,3.70
2018-04-24T10:32:50.392Z,3.90
2018-04-24T10:33:50.579Z,3.40
2018-04-24T10:34:50.760Z,3.50
2018-04-24T10:35:50.959Z,3.50
2018-04-24T10:36:51.133Z,5.40
2018-04-24T10:37:51.320Z,3.20
2018-04-24T10:38:54.046Z,4.10
2018-04-24T10:39:51.728Z,4.40
2018-04-24T10:40:51.917Z,4.20
2018-04-24T10:41:52.106Z,5.80
2018-04-24T10:42:52.294Z,4.20
2018-04-24T10:43:52.575Z,3.70
2018-04-24T10:44:52.714Z,3.30
2018-04-24T10:45:52.867Z,3.20
2018-04-24T10:46:53.052Z,4.30
2018-04-24T10:47:53.239Z,2.30
2018-04-24T10:48:53.424Z,3.00
2018-04-24T10:49:53.614Z,3.10
2018-04-24T10:50:53.802Z,3.40
2018-04-24T10:51:54.172Z,25.20
2018-04-24T10:52:54.178Z,3.30
2018-04-24T10:53:54.378Z,4.10
2018-04-24T10:54:54.562Z,4.80
2018-04-24T10:55:54.836Z,4.30
2018-04-24T10:56:54.936Z,5.10
2018-04-24T10:57:55.137Z,4.60
2018-04-24T10:58:55.333Z,3.60
2018-04-24T10:59:55.513Z,5.50
2018-04-24T11:00:55.702Z,3.60
2018-04-24T11:01:55.911Z,3.20
2018-04-24T11:02:56.379Z,4.50
2018-04-24T11:03:56.267Z,2.20
2018-04-24T11:04:56.480Z,5.40
2018-04-24T11:05:56.624Z,4.70
2018-04-24T11:06:56.809Z,3.90
2018-04-24T11:07:56.994Z,6.20
2018-04-24T11:08:57.177Z,3.70
2018-04-24T11:09:58.079Z,2.70
2018-04-24T11:10:57.618Z,4.10
2018-04-24T11:11:57.880Z,5.20
2018-04-24T11:12:57.995Z,2.40
2018-04-24T11:13:58.177Z,3.60
2018-04-24T11:14:58.367Z,4.40
2018-04-24T11:15:58.583Z,5.30
2018-04-24T11:16:58.745Z,5.50
2018-04-24T11:17:58.933Z,3.50
2018-04-24T11:18:59.112Z,3.20
2018-04-24T11:19:59.298Z,4.40
2018-04-24T11:20:59.497Z,4.60
2018-04-24T11:21:59.685Z,4.20
2018-04-24T11:22:59.861Z,3.60
2018-04-24T11:24:00.047Z,3.40
2018-04-24T11:25:00.236Z,3.50
2018-04-24T11:26:00.409Z,6.60
2018-04-24T11:27:00.601Z,4.10
2018-04-24T11:28:00.789Z,3.60
2018-04-24T11:29:00.968Z,4.40
2018-04-24T11:30:01.157Z,3.70
2018-04-24T11:31:01.359Z,4.10
2018-04-24T11:32:01.551Z,7.30
2018-04-24T11:33:01.746Z,4.80
2018-04-24T11:34:01.953Z,2.80
2018-04-24T11:35:02.121Z,3.50
2018-04-24T11:36:02.386Z,3.70
2018-04-24T11:37:02.490Z,3.40
2018-04-24T11:38:02.678Z,5.10
2018-04-24T11:39:02.911Z,6.10
2018-04-24T11:40:03.058Z,4.40
2018-04-24T11:41:03.251Z,3.80
2018-04-24T11:42:03.439Z,4.10
2018-04-24T11:43:03.618Z,3.40
2018-04-24T11:44:03.887Z,5.40
2018-04-24T11:45:04.080Z,3.80
2018-04-24T11:46:04.190Z,2.80
2018-04-24T11:47:04.384Z,5.50
2018-04-24T11:48:04.809Z,6.00
2018-04-24T11:49:04.756Z,4.60
2018-04-24T11:50:04.937Z,3.40
2018-04-24T11:51:05.140Z,4.10
2018-04-24T11:52:05.306Z,4.40
2018-04-24T11:53:05.494Z,5.30
2018-04-24T11:54:05.683Z,6.90
2018-04-24T11:55:05.871Z,6.50
2018-04-24T11:56:06.059Z,6.70
2018-04-24T11:57:06.313Z,5.40
2018-04-24T11:58:06.455Z,4.90
2018-04-24T11:59:06.636Z,3.90
2018-04-24T12:00:06.824Z,3.80
2018-04-24T12:01:07.019Z,5.00
2018-04-24T12:02:07.195Z,4.20
2018-04-24T12:03:07.381Z,4.60
2018-04-24T12:04:07.574Z,4.20
2018-04-24T12:05:07.749Z,3.60
2018-04-24T12:06:07.938Z,6.70
2018-04-24T12:07:08.122Z,9.10
2018-04-24T12:08:08.294Z,7.80
2018-04-24T12:09:08.497Z,3.70
2018-04-24T12:10:08.675Z,4.00
2018-04-24T12:11:08.857Z,6.70
2018-04-24T12:12:09.046Z,4.90
2018-04-24T12:13:09.229Z,3.90
2018-04-24T12:14:09.411Z,5.30
2018-04-24T12:15:09.598Z,7.20
2018-04-24T12:16:09.800Z,6.20
2018-04-24T12:17:09.973Z,6.80
2018-04-24T12:18:10.181Z,5.30
2018-04-24T12:19:10.448Z,4.50
2018-04-24T12:20:10.521Z,6.30
2018-04-24T12:21:10.708Z,5.20
2018-04-24T12:22:10.896Z,5.50
2018-04-24T12:23:11.153Z,6.90
2018-04-24T12:26:43.527Z,4.50
2018-04-24T12:27:43.719Z,5.70
2018-04-24T12:28:43.899Z,4.20
2018-04-24T12:29:44.097Z,3.90
2018-04-24T12:30:44.275Z,4.20
2018-04-24T12:31:44.456Z,3.80
2018-04-24T12:32:44.877Z,4.20
2018-04-24T12:33:44.817Z,5.50
2018-04-24T12:34:45.004Z,5.40
2018-04-24T12:35:45.191Z,3.30
2018-04-24T12:36:45.394Z,5.30
2018-04-24T12:37:45.555Z,6.40
2018-04-24T12:38:45.750Z,5.50
2018-04-24T12:39:46.173Z,4.10
2018-04-24T12:40:46.118Z,6.80
2018-04-24T12:41:46.313Z,5.30
2018-04-24T12:42:46.746Z,3.40
2018-04-24T12:43:46.685Z,3.00
2018-04-24T12:44:46.869Z,3.70
2018-04-24T12:45:47.094Z,4.20
2018-04-24T12:46:47.240Z,3.90
2018-04-24T12:47:47.431Z,3.30
2018-04-24T12:48:47.615Z,3.60
2018-04-24T12:49:47.808Z,4.90
2018-04-24T12:50:47.983Z,2.90
2018-04-24T12:51:48.208Z,6.20
2018-04-24T12:52:48.365Z,4.70
2018-04-24T12:53:48.552Z,5.20
2018-04-24T12:54:48.732Z,5.50
2018-04-24T12:55:48.909Z,6.40
2018-04-24T12:56:49.087Z,6.20
2018-04-24T12:57:49.312Z,9.10
2018-04-24T12:58:49.459Z,3.20
2018-04-24T12:59:49.637Z,3.50
2018-04-24T13:00:49.873Z,2.90
2018-04-24T13:01:50.010Z,4.00
2018-04-24T13:02:53.119Z,4.00
2018-04-24T13:03:50.746Z,3.40
2018-04-24T13:04:50.607Z,3.10
2018-04-24T13:05:51.585Z,4.00
2018-04-24T13:06:51.015Z,5.30
2018-04-24T13:07:51.201Z,4.40
2018-04-24T13:08:51.417Z,3.20
2018-04-24T13:09:51.665Z,3.50
2018-04-24T13:10:51.763Z,3.20
2018-04-24T13:11:51.944Z,2.40
2018-04-24T13:12:52.127Z,6.70
2018-04-24T13:13:52.315Z,5.00
2018-04-24T13:14:52.976Z,4.50
2018-04-24T13:15:52.719Z,2.90
2018-04-24T13:16:52.922Z,9.50
2018-04-24T13:17:53.038Z,8.70
2018-04-24T13:18:53.232Z,8.60
2018-04-24T13:19:53.411Z,6.10
2018-04-24T13:20:54.601Z,4.90
2018-04-24T13:21:53.780Z,8.00
2018-04-24T13:22:53.950Z,8.70
2018-04-24T13:23:54.132Z,6.80
2018-04-24T13:24:54.527Z,12.30
2018-04-24T13:25:54.486Z,7.90
2018-04-24T13:26:54.667Z,4.10
2018-04-24T13:27:54.854Z,4.00
2018-04-24T13:28:55.041Z,2.60
2018-04-24T13:29:55.222Z,3.00
2018-04-24T13:30:55.420Z,4.80